sensor_id;sensor_type;location;lat;lon;timestamp;temperature;humidity
76838;DHT22;65797;47.352;8.164;2023-12-20T05:39:11;4.50;99.90
76838;DHT22;65797;47.352;8.164;2023-12-20T05:41:39;4.50;99.90
76838;DHT22;65797;47.352;8.164;2023-12-20T07:37:09;4.80;28.70
76838;DHT22;65797;47.352;8.164;2023-12-20T07:39:40;4.80;42.10
76838;DHT22;65797;47.352;8.164;2023-12-20T07:42:07;4.80;39.50
76838;DHT22;65797;47.352;8.164;2023-12-20T07:47:08;4.80;58.00
76838;DHT22;65797;47.352;8.164;2023-12-20T07:59:56;4.90;69.40
76838;DHT22;65797;47.352;8.164;2023-12-20T08:02:22;4.90;73.10
76838;DHT22;65797;47.352;8.164;2023-12-20T08:04:48;4.90;65.30
76838;DHT22;65797;47.352;8.164;2023-12-20T08:07:13;4.90;64.00
76838;DHT22;65797;47.352;8.164;2023-12-20T08:09:40;4.90;58.20
76838;DHT22;65797;47.352;8.164;2023-12-20T08:12:05;4.90;54.20
76838;DHT22;65797;47.352;8.164;2023-12-20T08:14:31;4.90;80.10
76838;DHT22;65797;47.352;8.164;2023-12-20T08:16:57;5.00;84.20
76838;DHT22;65797;47.352;8.164;2023-12-20T08:19:23;5.00;79.50
76838;DHT22;65797;47.352;8.164;2023-12-20T08:21:49;5.00;76.70
76838;DHT22;65797;47.352;8.164;2023-12-20T08:24:14;5.00;68.50
76838;DHT22;65797;47.352;8.164;2023-12-20T08:26:40;5.00;46.70
76838;DHT22;65797;47.352;8.164;2023-12-20T08:29:07;5.00;45.70
76838;DHT22;65797;47.352;8.164;2023-12-20T08:31:32;5.00;44.20
76838;DHT22;65797;47.352;8.164;2023-12-20T08:33:58;5.10;37.70
76838;DHT22;65797;47.352;8.164;2023-12-20T08:36:25;5.10;22.20
76838;DHT22;65797;47.352;8.164;2023-12-20T08:38:51;5.10;19.70
76838;DHT22;65797;47.352;8.164;2023-12-20T08:41:18;5.10;14.70
76838;DHT22;65797;47.352;8.164;2023-12-20T08:43:44;5.20;14.00
76838;DHT22;65797;47.352;8.164;2023-12-20T08:54:09;5.30;25.40
76838;DHT22;65797;47.352;8.164;2023-12-20T08:56:35;5.20;17.20
76838;DHT22;65797;47.352;8.164;2023-12-20T08:59:01;5.30;33.80
76838;DHT22;65797;47.352;8.164;2023-12-20T09:01:27;5.30;1.00
76838;DHT22;65797;47.352;8.164;2023-12-20T09:03:52;5.40;8.30
76838;DHT22;65797;47.352;8.164;2023-12-20T09:06:18;5.40;1.00
76838;DHT22;65797;47.352;8.164;2023-12-20T09:08:44;5.40;1.00
76838;DHT22;65797;47.352;8.164;2023-12-20T09:11:10;5.40;1.00
76838;DHT22;65797;47.352;8.164;2023-12-20T09:13:36;5.40;1.00
76838;DHT22;65797;47.352;8.164;2023-12-20T09:16:03;5.50;1.00
76838;DHT22;65797;47.352;8.164;2023-12-20T09:18:29;5.50;1.00
76838;DHT22;65797;47.352;8.164;2023-12-20T09:20:55;5.50;1.00
76838;DHT22;65797;47.352;8.164;2023-12-20T09:23:20;5.50;1.00
76838;DHT22;65797;47.352;8.164;2023-12-20T09:25:46;5.60;1.00
76838;DHT22;65797;47.352;8.164;2023-12-20T09:28:12;5.60;1.00
76838;DHT22;65797;47.352;8.164;2023-12-20T09:30:38;5.60;1.00
76838;DHT22;65797;47.352;8.164;2023-12-20T09:33:05;5.60;1.00
76838;DHT22;65797;47.352;8.164;2023-12-20T09:35:32;5.60;1.00
76838;DHT22;65797;47.352;8.164;2023-12-20T09:37:58;5.60;1.00
76838;DHT22;65797;47.352;8.164;2023-12-20T09:40:26;5.60;1.00
76838;DHT22;65797;47.352;8.164;2023-12-20T09:43:08;5.70;1.00
76838;DHT22;65797;47.352;8.164;2023-12-20T09:45:36;5.70;1.00
76838;DHT22;65797;47.352;8.164;2023-12-20T09:48:01;5.70;99.90
76838;DHT22;65797;47.352;8.164;2023-12-20T09:50:30;5.70;1.00
76838;DHT22;65797;47.352;8.164;2023-12-20T09:52:58;5.70;99.90
76838;DHT22;65797;47.352;8.164;2023-12-20T09:55:27;5.80;99.90
76838;DHT22;65797;47.352;8.164;2023-12-20T09:57:53;5.80;99.90
76838;DHT22;65797;47.352;8.164;2023-12-20T10:00:19;5.80;99.90
76838;DHT22;65797;47.352;8.164;2023-12-20T10:03:05;5.80;99.90
76838;DHT22;65797;47.352;8.164;2023-12-20T10:05:32;5.90;99.90
76838;DHT22;65797;47.352;8.164;2023-12-20T10:07:59;5.90;99.90
76838;DHT22;65797;47.352;8.164;2023-12-20T10:10:25;5.90;99.90
76838;DHT22;65797;47.352;8.164;2023-12-20T10:13:07;5.90;91.30
76838;DHT22;65797;47.352;8.164;2023-12-20T10:15:35;6.00;36.60
76838;DHT22;65797;47.352;8.164;2023-12-20T10:18:01;6.00;79.30
76838;DHT22;65797;47.352;8.164;2023-12-20T10:20:28;6.10;99.90
76838;DHT22;65797;47.352;8.164;2023-12-20T10:22:55;6.10;1.00
76838;DHT22;65797;47.352;8.164;2023-12-20T10:25:21;6.10;1.00
76838;DHT22;65797;47.352;8.164;2023-12-20T10:27:47;6.10;1.00
76838;DHT22;65797;47.352;8.164;2023-12-20T10:30:13;6.20;1.00
76838;DHT22;65797;47.352;8.164;2023-12-20T10:32:39;6.20;99.90
76838;DHT22;65797;47.352;8.164;2023-12-20T10:35:06;6.30;99.90
76838;DHT22;65797;47.352;8.164;2023-12-20T10:37:35;6.20;1.00
76838;DHT22;65797;47.352;8.164;2023-12-20T10:40:03;6.30;1.00
76838;DHT22;65797;47.352;8.164;2023-12-20T10:42:30;6.30;99.90
76838;DHT22;65797;47.352;8.164;2023-12-20T10:44:58;6.30;1.00
76838;DHT22;65797;47.352;8.164;2023-12-20T10:47:25;6.40;1.00
76838;DHT22;65797;47.352;8.164;2023-12-20T10:49:52;6.40;1.00
76838;DHT22;65797;47.352;8.164;2023-12-20T10:52:19;6.40;1.00
76838;DHT22;65797;47.352;8.164;2023-12-20T10:54:48;6.40;1.00
76838;DHT22;65797;47.352;8.164;2023-12-20T10:57:14;6.40;99.90
76838;DHT22;65797;47.352;8.164;2023-12-20T10:59:43;6.40;25.60
76838;DHT22;65797;47.352;8.164;2023-12-20T11:02:11;6.30;1.00
76838;DHT22;65797;47.352;8.164;2023-12-20T11:04:59;6.30;99.90
76838;DHT22;65797;47.352;8.164;2023-12-20T11:07:36;6.40;99.90
76838;DHT22;65797;47.352;8.164;2023-12-20T11:10:15;6.40;99.90
76838;DHT22;65797;47.352;8.164;2023-12-20T11:13:10;6.40;99.90
76838;DHT22;65797;47.352;8.164;2023-12-20T11:15:37;6.30;1.00
76838;DHT22;65797;47.352;8.164;2023-12-20T11:18:04;6.30;1.00
76838;DHT22;65797;47.352;8.164;2023-12-20T11:20:41;6.20;1.00
76838;DHT22;65797;47.352;8.164;2023-12-20T11:23:08;6.20;1.00
76838;DHT22;65797;47.352;8.164;2023-12-20T11:28:14;6.20;99.90
76838;DHT22;65797;47.352;8.164;2023-12-20T11:30:46;6.10;99.90
76838;DHT22;65797;47.352;8.164;2023-12-20T11:33:15;6.20;99.90
76838;DHT22;65797;47.352;8.164;2023-12-20T11:35:42;6.10;1.00
76838;DHT22;65797;47.352;8.164;2023-12-20T11:38:09;6.10;3.50
76838;DHT22;65797;47.352;8.164;2023-12-20T11:40:36;6.20;99.90
76838;DHT22;65797;47.352;8.164;2023-12-20T11:43:04;6.20;1.00
76838;DHT22;65797;47.352;8.164;2023-12-20T11:45:33;6.20;1.00
76838;DHT22;65797;47.352;8.164;2023-12-20T11:48:04;6.20;1.00
76838;DHT22;65797;47.352;8.164;2023-12-20T11:50:30;6.30;1.00
76838;DHT22;65797;47.352;8.164;2023-12-20T11:52:56;6.20;99.90
76838;DHT22;65797;47.352;8.164;2023-12-20T11:55:25;6.30;99.90
76838;DHT22;65797;47.352;8.164;2023-12-20T11:57:51;6.30;1.00
76838;DHT22;65797;47.352;8.164;2023-12-20T12:00:17;6.40;1.00
76838;DHT22;65797;47.352;8.164;2023-12-20T12:02:43;6.30;99.90
76838;DHT22;65797;47.352;8.164;2023-12-20T12:05:20;6.30;99.90
76838;DHT22;65797;47.352;8.164;2023-12-20T12:07:45;6.30;99.90
76838;DHT22;65797;47.352;8.164;2023-12-20T12:10:11;6.30;99.90
76838;DHT22;65797;47.352;8.164;2023-12-20T12:12:36;6.30;99.90
76838;DHT22;65797;47.352;8.164;2023-12-20T12:15:03;6.20;88.60
76838;DHT22;65797;47.352;8.164;2023-12-20T12:17:30;6.20;45.10
76838;DHT22;65797;47.352;8.164;2023-12-20T12:20:03;6.10;1.00
76838;DHT22;65797;47.352;8.164;2023-12-20T12:22:29;6.10;1.00
76838;DHT22;65797;47.352;8.164;2023-12-20T12:24:59;6.10;1.00
76838;DHT22;65797;47.352;8.164;2023-12-20T12:27:25;6.00;1.00
76838;DHT22;65797;47.352;8.164;2023-12-20T12:30:02;6.00;1.00
76838;DHT22;65797;47.352;8.164;2023-12-20T12:32:30;6.00;1.00
76838;DHT22;65797;47.352;8.164;2023-12-20T12:34:56;6.00;1.00
76838;DHT22;65797;47.352;8.164;2023-12-20T12:37:22;6.00;1.00
76838;DHT22;65797;47.352;8.164;2023-12-20T12:39:49;5.90;1.00
76838;DHT22;65797;47.352;8.164;2023-12-20T12:42:15;5.90;1.00
76838;DHT22;65797;47.352;8.164;2023-12-20T12:44:41;5.90;1.00
76838;DHT22;65797;47.352;8.164;2023-12-20T12:47:06;5.80;1.00
76838;DHT22;65797;47.352;8.164;2023-12-20T12:49:33;5.80;1.00
76838;DHT22;65797;47.352;8.164;2023-12-20T12:51:59;5.80;1.00
76838;DHT22;65797;47.352;8.164;2023-12-20T12:54:24;5.80;1.00
76838;DHT22;65797;47.352;8.164;2023-12-20T12:56:50;5.80;1.00
76838;DHT22;65797;47.352;8.164;2023-12-20T12:59:18;5.80;1.00
76838;DHT22;65797;47.352;8.164;2023-12-20T13:01:44;5.80;99.90
76838;DHT22;65797;47.352;8.164;2023-12-20T13:04:09;5.80;1.00
76838;DHT22;65797;47.352;8.164;2023-12-20T13:06:38;5.90;99.90
76838;DHT22;65797;47.352;8.164;2023-12-20T13:09:04;6.40;1.00
76838;DHT22;65797;47.352;8.164;2023-12-20T13:11:35;6.50;99.90
76838;DHT22;65797;47.352;8.164;2023-12-20T13:14:00;6.80;99.90
76838;DHT22;65797;47.352;8.164;2023-12-20T13:24:25;6.90;43.40
76838;DHT22;65797;47.352;8.164;2023-12-20T13:29:26;6.40;99.90
76838;DHT22;65797;47.352;8.164;2023-12-20T13:31:55;6.30;99.90
76838;DHT22;65797;47.352;8.164;2023-12-20T13:34:20;6.20;99.90
76838;DHT22;65797;47.352;8.164;2023-12-20T13:36:46;6.10;99.90
76838;DHT22;65797;47.352;8.164;2023-12-20T13:39:13;5.70;99.90
76838;DHT22;65797;47.352;8.164;2023-12-20T13:41:39;5.80;99.90
76838;DHT22;65797;47.352;8.164;2023-12-20T13:44:05;5.70;99.90
76838;DHT22;65797;47.352;8.164;2023-12-20T13:46:31;5.70;91.60
76838;DHT22;65797;47.352;8.164;2023-12-20T13:48:57;5.80;99.90
76838;DHT22;65797;47.352;8.164;2023-12-20T13:51:22;5.80;99.90
76838;DHT22;65797;47.352;8.164;2023-12-20T14:15:22;6.90;99.90
76838;DHT22;65797;47.352;8.164;2023-12-20T14:17:51;6.70;99.90
76838;DHT22;65797;47.352;8.164;2023-12-20T14:20:16;6.50;99.90
76838;DHT22;65797;47.352;8.164;2023-12-20T14:22:43;6.30;99.90
76838;DHT22;65797;47.352;8.164;2023-12-20T15:09:11;4.70;99.90
76838;DHT22;65797;47.352;8.164;2023-12-20T15:37:30;4.30;1.00
76838;DHT22;65797;47.352;8.164;2023-12-20T15:39:56;4.20;1.00
76838;DHT22;65797;47.352;8.164;2023-12-20T15:42:22;4.10;1.00
76838;DHT22;65797;47.352;8.164;2023-12-20T15:44:48;4.10;1.00
76838;DHT22;65797;47.352;8.164;2023-12-20T15:47:19;4.00;1.00
76838;DHT22;65797;47.352;8.164;2023-12-20T16:41:14;3.20;1.00
76838;DHT22;65797;47.352;8.164;2023-12-20T16:43:40;3.10;1.00
76838;DHT22;65797;47.352;8.164;2023-12-20T16:46:06;3.10;1.00
76838;DHT22;65797;47.352;8.164;2023-12-20T19:46:28;3.00;1.00
76838;DHT22;65797;47.352;8.164;2023-12-20T19:48:54;3.00;1.00
